sensor_id;sensor_type;location;lat;lon;timestamp;pressure;altitude;pressure_sealevel;temperature;humidity
72585;BME280;60618;40.084;32.908;2022-08-01T00:01:49;88947.69;;;23.70;52.70
72585;BME280;60618;40.084;32.908;2022-08-01T00:04:16;88948.13;;;23.66;52.66
72585;BME280;60618;40.084;32.908;2022-08-01T00:06:43;88938.94;;;23.62;53.23
72585;BME280;60618;40.084;32.908;2022-08-01T00:09:10;88937.34;;;23.59;53.11
72585;BME280;60618;40.084;32.908;2022-08-01T00:11:49;88939.91;;;23.57;53.11
72585;BME280;60618;40.084;32.908;2022-08-01T00:14:33;88946.78;;;23.58;53.52
72585;BME280;60618;40.084;32.908;2022-08-01T00:17:00;88953.03;;;23.50;53.40
72585;BME280;60618;40.084;32.908;2022-08-01T00:19:33;88947.47;;;23.48;53.45
72585;BME280;60618;40.084;32.908;2022-08-01T00:22:00;88940.72;;;23.49;53.69
72585;BME280;60618;40.084;32.908;2022-08-01T00:24:27;88942.97;;;23.43;53.63
72585;BME280;60618;40.084;32.908;2022-08-01T00:26:54;88944.28;;;23.42;53.53
72585;BME280;60618;40.084;32.908;2022-08-01T00:29:21;88944.41;;;23.44;53.67
72585;BME280;60618;40.084;32.908;2022-08-01T00:32:08;88949.13;;;23.44;53.70
72585;BME280;60618;40.084;32.908;2022-08-01T00:34:35;88948.84;;;23.40;53.88
72585;BME280;60618;40.084;32.908;2022-08-01T00:37:02;88949.25;;;23.36;54.02
72585;BME280;60618;40.084;32.908;2022-08-01T00:39:29;88950.69;;;23.37;53.64
72585;BME280;60618;40.084;32.908;2022-08-01T00:41:56;88949.09;;;23.34;53.51
72585;BME280;60618;40.084;32.908;2022-08-01T00:44:26;88952.94;;;23.31;53.97
72585;BME280;60618;40.084;32.908;2022-08-01T00:46:53;88949.75;;;23.25;53.88
72585;BME280;60618;40.084;32.908;2022-08-01T00:49:20;88955.91;;;23.26;53.48
72585;BME280;60618;40.084;32.908;2022-08-01T00:51:47;88944.19;;;23.23;54.01
72585;BME280;60618;40.084;32.908;2022-08-01T00:54:15;88952.34;;;23.23;53.92
72585;BME280;60618;40.084;32.908;2022-08-01T00:56:42;88953.47;;;23.20;53.88
72585;BME280;60618;40.084;32.908;2022-08-01T00:59:11;88954.56;;;23.17;54.06
72585;BME280;60618;40.084;32.908;2022-08-01T01:01:40;88956.00;;;23.18;53.86
72585;BME280;60618;40.084;32.908;2022-08-01T01:04:12;88959.00;;;23.12;54.24
72585;BME280;60618;40.084;32.908;2022-08-01T01:06:59;88945.28;;;23.10;54.17
72585;BME280;60618;40.084;32.908;2022-08-01T01:12:27;88958.22;;;23.02;54.67
72585;BME280;60618;40.084;32.908;2022-08-01T01:15:10;88952.38;;;23.06;54.69
72585;BME280;60618;40.084;32.908;2022-08-01T01:17:47;88948.47;;;22.99;54.83
72585;BME280;60618;40.084;32.908;2022-08-01T01:20:18;88942.19;;;22.97;55.02
72585;BME280;60618;40.084;32.908;2022-08-01T01:23:06;88939.31;;;22.94;55.24
72585;BME280;60618;40.084;32.908;2022-08-01T01:28:15;88945.13;;;22.91;55.67
72585;BME280;60618;40.084;32.908;2022-08-01T01:30:46;88944.84;;;22.87;55.75
72585;BME280;60618;40.084;32.908;2022-08-01T01:33:16;88941.41;;;22.86;55.78
72585;BME280;60618;40.084;32.908;2022-08-01T01:35:52;88945.69;;;22.89;55.74
72585;BME280;60618;40.084;32.908;2022-08-01T01:38:24;88951.13;;;22.89;55.77
72585;BME280;60618;40.084;32.908;2022-08-01T01:40:53;88937.41;;;22.87;56.19
72585;BME280;60618;40.084;32.908;2022-08-01T01:43:23;88943.41;;;22.86;55.95
72585;BME280;60618;40.084;32.908;2022-08-01T01:46:00;88934.53;;;22.85;56.33
72585;BME280;60618;40.084;32.908;2022-08-01T01:48:28;88946.88;;;22.79;55.80
72585;BME280;60618;40.084;32.908;2022-08-01T01:50:56;88948.88;;;22.78;56.38
72585;BME280;60618;40.084;32.908;2022-08-01T01:53:24;88944.59;;;22.75;56.07
72585;BME280;60618;40.084;32.908;2022-08-01T01:55:55;88942.44;;;22.74;56.34
72585;BME280;60618;40.084;32.908;2022-08-01T01:58:24;88954.03;;;22.74;56.53
72585;BME280;60618;40.084;32.908;2022-08-01T02:00:52;88948.25;;;22.70;56.33
72585;BME280;60618;40.084;32.908;2022-08-01T02:03:22;88947.38;;;22.67;56.84
72585;BME280;60618;40.084;32.908;2022-08-01T02:05:51;88958.63;;;22.64;56.52
72585;BME280;60618;40.084;32.908;2022-08-01T02:08:20;88962.47;;;22.61;56.58
72585;BME280;60618;40.084;32.908;2022-08-01T02:10:50;88958.19;;;22.58;56.67
72585;BME280;60618;40.084;32.908;2022-08-01T02:13:18;88953.31;;;22.56;56.57
72585;BME280;60618;40.084;32.908;2022-08-01T02:15:46;88958.56;;;22.54;56.53
72585;BME280;60618;40.084;32.908;2022-08-01T02:18:26;88958.75;;;22.56;56.65
72585;BME280;60618;40.084;32.908;2022-08-01T02:20:54;88960.75;;;22.56;56.53
72585;BME280;60618;40.084;32.908;2022-08-01T02:23:24;88959.69;;;22.51;56.74
72585;BME280;60618;40.084;32.908;2022-08-01T02:25:55;88961.38;;;22.47;56.71
72585;BME280;60618;40.084;32.908;2022-08-01T02:28:43;88964.47;;;22.43;56.82
72585;BME280;60618;40.084;32.908;2022-08-01T02:31:14;88962.19;;;22.40;56.83
72585;BME280;60618;40.084;32.908;2022-08-01T02:33:46;88972.06;;;22.45;56.65
72585;BME280;60618;40.084;32.908;2022-08-01T02:36:16;88967.75;;;22.42;56.93
72585;BME280;60618;40.084;32.908;2022-08-01T02:39:00;88968.88;;;22.38;57.28
72585;BME280;60618;40.084;32.908;2022-08-01T02:41:28;88971.75;;;22.41;56.85
72585;BME280;60618;40.084;32.908;2022-08-01T02:44:00;88964.16;;;22.39;56.67
72585;BME280;60618;40.084;32.908;2022-08-01T02:46:38;88971.91;;;22.43;57.17
72585;BME280;60618;40.084;32.908;2022-08-01T02:49:09;88970.47;;;22.42;56.75
72585;BME280;60618;40.084;32.908;2022-08-01T02:51:39;88972.78;;;22.45;57.03
72585;BME280;60618;40.084;32.908;2022-08-01T02:54:08;88976.22;;;22.46;56.89
72585;BME280;60618;40.084;32.908;2022-08-01T02:56:36;88979.31;;;22.42;57.24
72585;BME280;60618;40.084;32.908;2022-08-01T02:59:10;88980.75;;;22.43;57.17
72585;BME280;60618;40.084;32.908;2022-08-01T03:01:40;88984.75;;;22.42;57.13
72585;BME280;60618;40.084;32.908;2022-08-01T03:04:09;88980.03;;;22.43;57.18
72585;BME280;60618;40.084;32.908;2022-08-01T03:06:38;88992.66;;;22.48;56.86
72585;BME280;60618;40.084;32.908;2022-08-01T03:09:08;88986.13;;;22.51;56.97
72585;BME280;60618;40.084;32.908;2022-08-01T03:11:39;88988.25;;;22.52;56.78
72585;BME280;60618;40.084;32.908;2022-08-01T03:14:09;88984.28;;;22.53;56.56
72585;BME280;60618;40.084;32.908;2022-08-01T03:16:38;88992.56;;;22.55;56.68
72585;BME280;60618;40.084;32.908;2022-08-01T03:19:08;88991.06;;;22.62;56.54
72585;BME280;60618;40.084;32.908;2022-08-01T03:21:36;88994.66;;;22.64;56.24
72585;BME280;60618;40.084;32.908;2022-08-01T03:24:05;88993.53;;;22.67;56.52
72585;BME280;60618;40.084;32.908;2022-08-01T03:26:34;88992.56;;;22.73;56.25
72585;BME280;60618;40.084;32.908;2022-08-01T03:29:09;89004.06;;;22.81;55.88
72585;BME280;60618;40.084;32.908;2022-08-01T03:31:38;88998.59;;;22.88;55.87
72585;BME280;60618;40.084;32.908;2022-08-01T03:34:05;89000.78;;;23.00;55.51
72585;BME280;60618;40.084;32.908;2022-08-01T03:36:34;88998.41;;;23.04;55.25
72585;BME280;60618;40.084;32.908;2022-08-01T03:39:05;89003.91;;;23.13;55.03
72585;BME280;60618;40.084;32.908;2022-08-01T03:41:39;88995.38;;;23.27;54.50
72585;BME280;60618;40.084;32.908;2022-08-01T03:44:11;89000.88;;;23.36;54.61
72585;BME280;60618;40.084;32.908;2022-08-01T03:46:44;89000.25;;;23.45;54.35
72585;BME280;60618;40.084;32.908;2022-08-01T03:49:18;89005.00;;;23.55;53.97
72585;BME280;60618;40.084;32.908;2022-08-01T03:51:47;89001.47;;;23.62;54.11
72585;BME280;60618;40.084;32.908;2022-08-01T03:54:17;89002.09;;;23.70;53.58
72585;BME280;60618;40.084;32.908;2022-08-01T03:56:48;89013.88;;;23.82;53.36
72585;BME280;60618;40.084;32.908;2022-08-01T03:59:16;89011.91;;;23.92;53.37
72585;BME280;60618;40.084;32.908;2022-08-01T04:01:45;89009.94;;;24.02;52.68
72585;BME280;60618;40.084;32.908;2022-08-01T04:04:13;89013.84;;;24.09;52.77
72585;BME280;60618;40.084;32.908;2022-08-01T04:06:56;89014.72;;;24.21;52.70
72585;BME280;60618;40.084;32.908;2022-08-01T04:09:23;89007.16;;;24.29;52.07
72585;BME280;60618;40.084;32.908;2022-08-01T04:11:50;89012.22;;;24.43;51.71
72585;BME280;60618;40.084;32.908;2022-08-01T04:14:16;89027.31;;;24.53;51.73
72585;BME280;60618;40.084;32.908;2022-08-01T04:16:43;89020.28;;;24.60;51.09
72585;BME280;60618;40.084;32.908;2022-08-01T04:19:11;89013.53;;;24.71;51.01
72585;BME280;60618;40.084;32.908;2022-08-01T04:21:38;89018.44;;;24.82;50.32
72585;BME280;60618;40.084;32.908;2022-08-01T04:24:17;89015.84;;;24.94;50.37
72585;BME280;60618;40.084;32.908;2022-08-01T04:26:46;89022.75;;;25.04;49.76
72585;BME280;60618;40.084;32.908;2022-08-01T04:29:16;89024.75;;;25.13;49.77
72585;BME280;60618;40.084;32.908;2022-08-01T04:31:45;89021.31;;;25.23;49.15
72585;BME280;60618;40.084;32.908;2022-08-01T04:34:17;89019.16;;;25.31;49.22
72585;BME280;60618;40.084;32.908;2022-08-01T04:36:45;89011.69;;;25.41;49.04
72585;BME280;60618;40.084;32.908;2022-08-01T04:39:15;89023.72;;;25.57;48.21
72585;BME280;60618;40.084;32.908;2022-08-01T04:41:44;89031.59;;;25.63;48.11
72585;BME280;60618;40.084;32.908;2022-08-01T04:44:13;89026.53;;;25.69;48.13
72585;BME280;60618;40.084;32.908;2022-08-01T04:46:40;89030.56;;;25.78;48.16
72585;BME280;60618;40.084;32.908;2022-08-01T04:49:07;89026.53;;;25.88;47.65
72585;BME280;60618;40.084;32.908;2022-08-01T04:51:35;89023.50;;;25.94;47.31
72585;BME280;60618;40.084;32.908;2022-08-01T04:54:02;89032.34;;;26.04;47.76
72585;BME280;60618;40.084;32.908;2022-08-01T04:56:29;89025.75;;;26.07;47.25
72585;BME280;60618;40.084;32.908;2022-08-01T04:58:55;89037.72;;;26.23;47.15
72585;BME280;60618;40.084;32.908;2022-08-01T05:01:22;89034.13;;;26.30;47.06
72585;BME280;60618;40.084;32.908;2022-08-01T05:03:49;89035.13;;;26.35;46.91
72585;BME280;60618;40.084;32.908;2022-08-01T05:06:16;89046.00;;;26.45;46.51
72585;BME280;60618;40.084;32.908;2022-08-01T05:08:43;89047.84;;;26.52;46.52
72585;BME280;60618;40.084;32.908;2022-08-01T05:11:10;89042.78;;;26.58;46.05
72585;BME280;60618;40.084;32.908;2022-08-01T05:13:37;89040.97;;;26.72;45.93
72585;BME280;60618;40.084;32.908;2022-08-01T05:16:03;89033.19;;;26.78;45.49
72585;BME280;60618;40.084;32.908;2022-08-01T05:18:30;89039.72;;;26.85;45.44
72585;BME280;60618;40.084;32.908;2022-08-01T05:20:58;89036.69;;;26.91;45.36
72585;BME280;60618;40.084;32.908;2022-08-01T05:23:25;89040.38;;;26.95;44.63
72585;BME280;60618;40.084;32.908;2022-08-01T05:26:10;89042.34;;;27.04;44.84
72585;BME280;60618;40.084;32.908;2022-08-01T05:28:40;89040.00;;;27.10;44.63
72585;BME280;60618;40.084;32.908;2022-08-01T05:31:08;89038.63;;;27.21;43.88
72585;BME280;60618;40.084;32.908;2022-08-01T05:33:35;89049.06;;;27.34;43.31
72585;BME280;60618;40.084;32.908;2022-08-01T05:36:02;89047.47;;;27.31;42.22
72585;BME280;60618;40.084;32.908;2022-08-01T05:38:29;89053.22;;;27.35;43.30
72585;BME280;60618;40.084;32.908;2022-08-01T05:40:56;89046.75;;;27.31;41.83
72585;BME280;60618;40.084;32.908;2022-08-01T05:43:23;89048.25;;;27.22;42.91
72585;BME280;60618;40.084;32.908;2022-08-01T05:45:54;89039.81;;;27.18;44.25
72585;BME280;60618;40.084;32.908;2022-08-01T05:48:21;89041.28;;;27.31;44.43
72585;BME280;60618;40.084;32.908;2022-08-01T05:50:48;89033.38;;;27.47;43.54
72585;BME280;60618;40.084;32.908;2022-08-01T05:53:15;89045.81;;;27.59;43.14
72585;BME280;60618;40.084;32.908;2022-08-01T05:55:42;89029.41;;;27.59;41.10
72585;BME280;60618;40.084;32.908;2022-08-01T05:58:09;89035.63;;;27.71;42.25
72585;BME280;60618;40.084;32.908;2022-08-01T06:00:38;89039.56;;;27.68;40.74
72585;BME280;60618;40.084;32.908;2022-08-01T06:03:05;89035.03;;;27.73;41.42
72585;BME280;60618;40.084;32.908;2022-08-01T06:05:32;89033.84;;;27.76;41.29
72585;BME280;60618;40.084;32.908;2022-08-01T06:07:59;89036.47;;;27.74;41.47
72585;BME280;60618;40.084;32.908;2022-08-01T06:10:26;89034.09;;;27.80;41.69
72585;BME280;60618;40.084;32.908;2022-08-01T06:12:53;89031.16;;;27.88;41.00
72585;BME280;60618;40.084;32.908;2022-08-01T06:15:20;89031.75;;;27.98;41.48
72585;BME280;60618;40.084;32.908;2022-08-01T06:17:47;89033.19;;;27.99;40.13
72585;BME280;60618;40.084;32.908;2022-08-01T06:20:14;89027.59;;;28.09;40.86
72585;BME280;60618;40.084;32.908;2022-08-01T06:22:41;89029.53;;;28.30;41.14
72585;BME280;60618;40.084;32.908;2022-08-01T06:25:08;89023.00;;;28.46;40.28
72585;BME280;60618;40.084;32.908;2022-08-01T06:27:35;89019.53;;;28.58;39.69
72585;BME280;60618;40.084;32.908;2022-08-01T06:30:03;89018.22;;;28.70;39.99
72585;BME280;60618;40.084;32.908;2022-08-01T06:32:30;89016.06;;;28.80;39.49
72585;BME280;60618;40.084;32.908;2022-08-01T06:34:57;89015.44;;;28.82;39.07
72585;BME280;60618;40.084;32.908;2022-08-01T06:37:31;89021.91;;;28.87;38.40
72585;BME280;60618;40.084;32.908;2022-08-01T06:40:06;89023.22;;;28.86;37.78
72585;BME280;60618;40.084;32.908;2022-08-01T06:42:34;89019.41;;;28.91;38.29
72585;BME280;60618;40.084;32.908;2022-08-01T06:45:06;89023.41;;;29.01;38.24
72585;BME280;60618;40.084;32.908;2022-08-01T06:47:33;89026.50;;;29.07;38.09
72585;BME280;60618;40.084;32.908;2022-08-01T06:50:00;89017.22;;;29.13;37.62
72585;BME280;60618;40.084;32.908;2022-08-01T06:52:28;89010.72;;;29.20;37.92
72585;BME280;60618;40.084;32.908;2022-08-01T06:54:55;89004.97;;;29.27;37.05
72585;BME280;60618;40.084;32.908;2022-08-01T06:57:22;89014.81;;;29.44;37.62
72585;BME280;60618;40.084;32.908;2022-08-01T06:59:49;89008.59;;;29.55;37.37
72585;BME280;60618;40.084;32.908;2022-08-01T07:02:20;89012.91;;;29.72;37.12
72585;BME280;60618;40.084;32.908;2022-08-01T07:04:47;89005.94;;;29.83;37.22
72585;BME280;60618;40.084;32.908;2022-08-01T07:07:14;89000.66;;;29.87;36.84
72585;BME280;60618;40.084;32.908;2022-08-01T07:09:41;89007.59;;;29.88;35.26
72585;BME280;60618;40.084;32.908;2022-08-01T07:12:09;89015.41;;;29.80;35.40
72585;BME280;60618;40.084;32.908;2022-08-01T07:14:35;89006.66;;;29.83;35.43
72585;BME280;60618;40.084;32.908;2022-08-01T07:17:02;89017.16;;;29.87;35.27
72585;BME280;60618;40.084;32.908;2022-08-01T07:19:29;89018.50;;;30.00;35.85
72585;BME280;60618;40.084;32.908;2022-08-01T07:21:56;89011.66;;;30.12;35.74
72585;BME280;60618;40.084;32.908;2022-08-01T07:24:23;89006.69;;;30.22;35.84
72585;BME280;60618;40.084;32.908;2022-08-01T07:26:54;89011.56;;;30.24;33.88
72585;BME280;60618;40.084;32.908;2022-08-01T07:29:22;89015.63;;;30.37;34.60
72585;BME280;60618;40.084;32.908;2022-08-01T07:31:51;89009.94;;;30.46;33.80
72585;BME280;60618;40.084;32.908;2022-08-01T07:34:18;89009.78;;;30.56;34.99
72585;BME280;60618;40.084;32.908;2022-08-01T07:36:45;89009.06;;;30.69;34.55
72585;BME280;60618;40.084;32.908;2022-08-01T07:39:12;89011.44;;;30.75;33.90
72585;BME280;60618;40.084;32.908;2022-08-01T07:41:39;89006.44;;;30.85;32.98
72585;BME280;60618;40.084;32.908;2022-08-01T07:44:25;89010.28;;;30.80;32.07
72585;BME280;60618;40.084;32.908;2022-08-01T07:46:54;89003.88;;;30.75;32.05
72585;BME280;60618;40.084;32.908;2022-08-01T07:49:21;89006.84;;;30.66;33.17
72585;BME280;60618;40.084;32.908;2022-08-01T07:51:48;89011.63;;;30.65;33.61
72585;BME280;60618;40.084;32.908;2022-08-01T07:54:33;89012.94;;;30.78;34.18
72585;BME280;60618;40.084;32.908;2022-08-01T07:57:01;89009.47;;;30.91;33.45
72585;BME280;60618;40.084;32.908;2022-08-01T07:59:29;89010.38;;;30.96;32.62
72585;BME280;60618;40.084;32.908;2022-08-01T08:01:56;89007.94;;;31.02;32.97
72585;BME280;60618;40.084;32.908;2022-08-01T08:04:24;89010.47;;;31.12;33.05
72585;BME280;60618;40.084;32.908;2022-08-01T08:06:51;89014.63;;;31.26;32.84
72585;BME280;60618;40.084;32.908;2022-08-01T08:09:18;89012.19;;;31.32;32.84
72585;BME280;60618;40.084;32.908;2022-08-01T08:11:46;89008.31;;;31.38;31.10
72585;BME280;60618;40.084;32.908;2022-08-01T08:14:15;89004.31;;;31.41;31.59
72585;BME280;60618;40.084;32.908;2022-08-01T08:16:42;89005.41;;;31.49;31.73
72585;BME280;60618;40.084;32.908;2022-08-01T08:19:10;89003.66;;;31.56;31.01
72585;BME280;60618;40.084;32.908;2022-08-01T08:21:37;89004.03;;;31.64;31.40
72585;BME280;60618;40.084;32.908;2022-08-01T08:24:05;89000.44;;;31.75;31.27
72585;BME280;60618;40.084;32.908;2022-08-01T08:26:34;89001.72;;;31.88;30.47
72585;BME280;60618;40.084;32.908;2022-08-01T08:29:01;88998.53;;;31.94;30.43
72585;BME280;60618;40.084;32.908;2022-08-01T08:31:28;88995.88;;;31.96;29.85
72585;BME280;60618;40.084;32.908;2022-08-01T08:34:15;88999.94;;;31.95;29.69
72585;BME280;60618;40.084;32.908;2022-08-01T08:36:42;89001.00;;;31.87;29.66
72585;BME280;60618;40.084;32.908;2022-08-01T08:39:13;88985.63;;;31.82;30.46
72585;BME280;60618;40.084;32.908;2022-08-01T08:41:43;89000.19;;;31.85;29.64
72585;BME280;60618;40.084;32.908;2022-08-01T08:44:16;88996.81;;;31.86;30.25
72585;BME280;60618;40.084;32.908;2022-08-01T08:46:49;88993.44;;;31.88;30.24
72585;BME280;60618;40.084;32.908;2022-08-01T08:49:19;88995.31;;;31.83;29.21
72585;BME280;60618;40.084;32.908;2022-08-01T08:51:49;88991.56;;;31.77;29.26
72585;BME280;60618;40.084;32.908;2022-08-01T08:54:20;88990.75;;;31.74;29.36
72585;BME280;60618;40.084;32.908;2022-08-01T08:56:58;88985.94;;;31.75;29.40
72585;BME280;60618;40.084;32.908;2022-08-01T08:59:25;88988.31;;;31.67;29.10
72585;BME280;60618;40.084;32.908;2022-08-01T09:01:52;88991.41;;;31.59;29.34
72585;BME280;60618;40.084;32.908;2022-08-01T09:04:23;88988.19;;;31.49;29.12
72585;BME280;60618;40.084;32.908;2022-08-01T09:06:53;88990.56;;;31.41;29.32
72585;BME280;60618;40.084;32.908;2022-08-01T09:09:19;88987.09;;;31.40;29.48
72585;BME280;60618;40.084;32.908;2022-08-01T09:11:46;88983.31;;;31.47;29.90
72585;BME280;60618;40.084;32.908;2022-08-01T09:14:24;88982.75;;;31.51;29.21
72585;BME280;60618;40.084;32.908;2022-08-01T09:17:08;88972.13;;;31.59;29.70
72585;BME280;60618;40.084;32.908;2022-08-01T09:19:36;88982.09;;;31.66;29.27
72585;BME280;60618;40.084;32.908;2022-08-01T09:22:17;88988.09;;;31.76;29.21
72585;BME280;60618;40.084;32.908;2022-08-01T09:25:07;88977.53;;;31.86;28.47
72585;BME280;60618;40.084;32.908;2022-08-01T09:27:36;88980.31;;;31.86;28.57
72585;BME280;60618;40.084;32.908;2022-08-01T09:30:14;88983.06;;;31.86;28.67
72585;BME280;60618;40.084;32.908;2022-08-01T09:32:57;88977.78;;;31.77;28.83
72585;BME280;60618;40.084;32.908;2022-08-01T09:35:31;88974.56;;;31.67;29.07
72585;BME280;60618;40.084;32.908;2022-08-01T09:38:21;88971.75;;;31.80;28.76
72585;BME280;60618;40.084;32.908;2022-08-01T09:43:26;88972.22;;;31.90;28.17
72585;BME280;60618;40.084;32.908;2022-08-01T09:45:57;88974.94;;;31.75;28.73
72585;BME280;60618;40.084;32.908;2022-08-01T09:48:24;88969.13;;;31.69;28.97
72585;BME280;60618;40.084;32.908;2022-08-01T09:50:56;88968.50;;;31.70;28.81
72585;BME280;60618;40.084;32.908;2022-08-01T09:53:44;88969.19;;;31.84;28.43
72585;BME280;60618;40.084;32.908;2022-08-01T09:56:17;88966.25;;;31.80;28.04
72585;BME280;60618;40.084;32.908;2022-08-01T09:58:58;88968.91;;;31.78;28.45
72585;BME280;60618;40.084;32.908;2022-08-01T10:01:46;88966.97;;;31.97;27.82
72585;BME280;60618;40.084;32.908;2022-08-01T10:04:16;88972.31;;;31.92;28.14
72585;BME280;60618;40.084;32.908;2022-08-01T10:06:45;88954.09;;;31.85;27.65
72585;BME280;60618;40.084;32.908;2022-08-01T10:09:26;88961.31;;;31.92;27.65
72585;BME280;60618;40.084;32.908;2022-08-01T10:12:06;88979.88;;;31.92;27.29
72585;BME280;60618;40.084;32.908;2022-08-01T10:14:36;88966.53;;;31.86;27.22
72585;BME280;60618;40.084;32.908;2022-08-01T10:17:03;88959.44;;;31.81;27.41
72585;BME280;60618;40.084;32.908;2022-08-01T10:19:34;88957.19;;;31.78;27.72
72585;BME280;60618;40.084;32.908;2022-08-01T10:22:04;88959.44;;;31.81;28.13
72585;BME280;60618;40.084;32.908;2022-08-01T10:24:36;88955.59;;;31.88;28.56
72585;BME280;60618;40.084;32.908;2022-08-01T10:27:10;88954.81;;;32.02;27.96
72585;BME280;60618;40.084;32.908;2022-08-01T10:29:50;88952.31;;;32.08;28.29
72585;BME280;60618;40.084;32.908;2022-08-01T10:32:35;88943.06;;;32.17;27.99
72585;BME280;60618;40.084;32.908;2022-08-01T10:35:06;88940.78;;;32.27;28.15
72585;BME280;60618;40.084;32.908;2022-08-01T10:37:42;88939.97;;;32.40;28.48
72585;BME280;60618;40.084;32.908;2022-08-01T10:40:18;88940.22;;;32.62;28.63
72585;BME280;60618;40.084;32.908;2022-08-01T10:42:56;88938.22;;;32.81;28.18
72585;BME280;60618;40.084;32.908;2022-08-01T10:45:25;88930.72;;;32.99;27.65
72585;BME280;60618;40.084;32.908;2022-08-01T10:51:02;88936.69;;;33.27;27.08
72585;BME280;60618;40.084;32.908;2022-08-01T10:53:52;88935.75;;;33.38;27.03
72585;BME280;60618;40.084;32.908;2022-08-01T10:56:22;88944.13;;;33.40;26.54
72585;BME280;60618;40.084;32.908;2022-08-01T10:59:01;88943.41;;;33.40;25.78
72585;BME280;60618;40.084;32.908;2022-08-01T11:01:37;88940.19;;;33.45;24.74
72585;BME280;60618;40.084;32.908;2022-08-01T11:04:12;88931.31;;;33.31;25.11
72585;BME280;60618;40.084;32.908;2022-08-01T11:06:55;88935.78;;;33.22;25.08
72585;BME280;60618;40.084;32.908;2022-08-01T11:09:31;88929.09;;;33.10;25.08
72585;BME280;60618;40.084;32.908;2022-08-01T11:28:26;88904.63;;;32.68;26.71
72585;BME280;60618;40.084;32.908;2022-08-01T11:38:45;88905.75;;;32.79;27.13
72585;BME280;60618;40.084;32.908;2022-08-01T11:41:15;88911.34;;;32.81;26.91
72585;BME280;60618;40.084;32.908;2022-08-01T11:44:09;88914.19;;;32.83;26.35
72585;BME280;60618;40.084;32.908;2022-08-01T11:46:46;88900.13;;;32.77;26.27
72585;BME280;60618;40.084;32.908;2022-08-01T11:52:24;88907.78;;;32.79;26.43
72585;BME280;60618;40.084;32.908;2022-08-01T11:55:05;88900.31;;;32.81;26.53
72585;BME280;60618;40.084;32.908;2022-08-01T11:57:36;88893.34;;;32.80;26.60
72585;BME280;60618;40.084;32.908;2022-08-01T12:00:16;88900.13;;;32.77;26.62
72585;BME280;60618;40.084;32.908;2022-08-01T12:02:45;88894.13;;;32.65;25.99
72585;BME280;60618;40.084;32.908;2022-08-01T12:05:15;88889.97;;;32.64;26.59
72585;BME280;60618;40.084;32.908;2022-08-01T12:07:43;88892.72;;;32.64;26.35
72585;BME280;60618;40.084;32.908;2022-08-01T12:10:16;88895.13;;;32.56;26.72
72585;BME280;60618;40.084;32.908;2022-08-01T12:12:59;88885.75;;;32.45;27.03
72585;BME280;60618;40.084;32.908;2022-08-01T12:15:38;88883.50;;;32.41;26.95
72585;BME280;60618;40.084;32.908;2022-08-01T12:18:06;88883.50;;;32.41;26.49
72585;BME280;60618;40.084;32.908;2022-08-01T12:20:39;88879.41;;;32.42;26.94
72585;BME280;60618;40.084;32.908;2022-08-01T12:23:22;88877.53;;;32.47;26.87
72585;BME280;60618;40.084;32.908;2022-08-01T12:25:52;88874.53;;;32.41;27.13
72585;BME280;60618;40.084;32.908;2022-08-01T12:28:19;88876.56;;;32.40;27.37
72585;BME280;60618;40.084;32.908;2022-08-01T12:30:48;88888.16;;;32.37;27.46
72585;BME280;60618;40.084;32.908;2022-08-01T12:33:17;88875.16;;;32.39;28.08
72585;BME280;60618;40.084;32.908;2022-08-01T12:35:45;88876.75;;;32.44;28.39
72585;BME280;60618;40.084;32.908;2022-08-01T12:38:18;88868.56;;;32.46;27.61
72585;BME280;60618;40.084;32.908;2022-08-01T12:40:46;88876.53;;;32.56;27.82
72585;BME280;60618;40.084;32.908;2022-08-01T12:43:20;88876.31;;;32.68;28.07
72585;BME280;60618;40.084;32.908;2022-08-01T12:45:57;88868.31;;;32.74;28.46
72585;BME280;60618;40.084;32.908;2022-08-01T12:48:25;88869.53;;;32.87;28.59
72585;BME280;60618;40.084;32.908;2022-08-01T12:50:53;88875.44;;;32.97;28.13
72585;BME280;60618;40.084;32.908;2022-08-01T12:53:22;88880.50;;;33.02;27.89
72585;BME280;60618;40.084;32.908;2022-08-01T12:55:54;88870.88;;;33.03;27.84
72585;BME280;60618;40.084;32.908;2022-08-01T12:58:31;88877.75;;;33.02;28.13
72585;BME280;60618;40.084;32.908;2022-08-01T13:01:12;88879.41;;;33.10;28.31
72585;BME280;60618;40.084;32.908;2022-08-01T13:03:40;88872.78;;;33.17;27.33
72585;BME280;60618;40.084;32.908;2022-08-01T13:06:14;88875.22;;;33.09;27.15
72585;BME280;60618;40.084;32.908;2022-08-01T13:08:43;88876.09;;;33.13;26.60
72585;BME280;60618;40.084;32.908;2022-08-01T13:11:12;88880.03;;;33.08;26.08
72585;BME280;60618;40.084;32.908;2022-08-01T13:13:44;88875.38;;;33.13;26.43
72585;BME280;60618;40.084;32.908;2022-08-01T13:16:11;88875.31;;;33.11;26.01
72585;BME280;60618;40.084;32.908;2022-08-01T13:18:58;88877.59;;;32.98;26.69
72585;BME280;60618;40.084;32.908;2022-08-01T13:21:29;88875.44;;;32.97;27.08
72585;BME280;60618;40.084;32.908;2022-08-01T13:24:26;88872.06;;;32.98;27.77
72585;BME280;60618;40.084;32.908;2022-08-01T13:26:56;88863.94;;;33.02;27.72
72585;BME280;60618;40.084;32.908;2022-08-01T13:29:34;88879.22;;;33.06;27.57
72585;BME280;60618;40.084;32.908;2022-08-01T13:32:21;88869.63;;;33.07;27.22
72585;BME280;60618;40.084;32.908;2022-08-01T13:35:09;88865.53;;;33.08;26.73
72585;BME280;60618;40.084;32.908;2022-08-01T13:37:36;88864.25;;;33.11;27.43
72585;BME280;60618;40.084;32.908;2022-08-01T13:40:06;88870.41;;;33.09;26.87
72585;BME280;60618;40.084;32.908;2022-08-01T13:42:34;88863.00;;;33.14;27.00
72585;BME280;60618;40.084;32.908;2022-08-01T13:45:02;88865.81;;;33.16;27.39
72585;BME280;60618;40.084;32.908;2022-08-01T13:47:39;88865.22;;;33.17;26.67
72585;BME280;60618;40.084;32.908;2022-08-01T13:50:26;88866.00;;;33.20;27.37